Time;durP1;ratioP1;P1;durP2;ratioP2;P2;SDS_P1;SDS_P2;PMS_P1;PMS_P2;Temp;Humidity;BMP_temperature;BMP_pressure;BME280_temperature;BME280_humidity;BME280_pressure;Samples;Min_cycle;Max_cycle;Signal;HPM_P1;HPM_P2
2023/06/30 00:01:27;;;;;;;;;;;;;;;22.98;50.12;101205.72;4123039;28;20018;-55
2023/06/30 00:03:28;;;;;;;;;;;;;;;22.97;49.92;101210.19;4121699;28;20020;-55
2023/06/30 00:05:30;;;;;;;;;;;;;;;22.96;50.40;101202.28;4117798;28;19988;-55
2023/06/30 00:07:32;;;;;;;;;;;;;;;22.96;50.34;101210.34;4126865;28;19933;-55
2023/06/30 00:09:34;;;;;;;;;;;;;;;22.95;50.14;101211.31;4116730;28;19934;-55
2023/06/30 00:11:37;;;;;;;;;;;;;;;22.94;50.33;101206.91;4119583;28;19965;-55
2023/06/30 00:13:39;;;;;;;;;;;;;;;22.94;50.03;101199.72;4123786;28;20024;-55
2023/06/30 00:15:40;;;;;;;;;;;;;;;22.93;50.11;101200.72;4116904;28;19953;-55
2023/06/30 00:17:42;;;;;;;;;;;;;;;22.93;50.23;101192.66;4119385;28;19930;-55
2023/06/30 00:19:43;;;;;;;;;;;;;;;22.93;50.18;101199.84;4116843;28;19926;-56
2023/06/30 00:21:45;;;;;;;;;;;;;;;22.92;50.34;101193.63;4119641;28;19933;-55
2023/06/30 00:23:47;;;;;;;;;;;;;;;22.92;50.44;101198.16;4125617;28;19984;-55
2023/06/30 00:25:48;;;;;;;;;;;;;;;22.92;50.08;101203.53;4116389;28;19934;-55
2023/06/30 00:27:50;;;;;;;;;;;;;;;22.91;50.10;101199.97;4125881;28;19960;-55
2023/06/30 00:29:51;;;;;;;;;;;;;;;22.91;50.49;101191.09;4118150;28;19937;-55
2023/06/30 00:31:53;;;;;;;;;;;;;;;22.90;50.33;101194.75;4117566;28;20404;-57
2023/06/30 00:33:55;;;;;;;;;;;;;;;22.90;50.47;101203.63;4126986;28;20396;-55
2023/06/30 00:35:56;;;;;;;;;;;;;;;22.90;50.08;101200.09;4116882;28;19926;-55
2023/06/30 00:37:58;;;;;;;;;;;;;;;22.89;50.38;101201.06;4124321;28;20004;-54
2023/06/30 00:39:59;;;;;;;;;;;;;;;22.88;50.23;101202.91;4119423;28;19941;-55
2023/06/30 00:42:02;;;;;;;;;;;;;;;22.88;50.47;101202.03;4117742;28;19969;-54
2023/06/30 00:44:03;;;;;;;;;;;;;;;22.87;50.25;101201.19;4127162;28;20347;-55
2023/06/30 00:46:05;;;;;;;;;;;;;;;22.88;50.36;101202.03;4115567;28;19926;-55
2023/06/30 00:48:07;;;;;;;;;;;;;;;22.87;50.24;101206.56;4123047;28;19926;-55
2023/06/30 00:50:08;;;;;;;;;;;;;;;22.86;50.53;101199.50;4132293;28;20024;-55
2023/06/30 00:52:10;;;;;;;;;;;;;;;22.86;50.51;101207.53;4130888;28;20283;-55
2023/06/30 00:54:14;;;;;;;;;;;;;;;22.86;50.29;101210.22;4121368;28;19926;-51
2023/06/30 00:56:15;;;;;;;;;;;;;;;22.86;50.28;101214.75;4131465;28;19926;-55
2023/06/30 00:58:17;;;;;;;;;;;;;;;22.85;50.38;101213.88;4126009;28;20028;-54
2023/06/30 01:00:19;;;;;;;;;;;;;;;22.86;50.44;101217.44;4125711;28;19933;-54
2023/06/30 01:02:24;;;;;;;;;;;;;;;22.85;50.25;101215.72;4131594;28;19964;-54
2023/06/30 01:04:44;;;;;;;;;;;;;;;22.84;50.21;101214.84;4120918;28;20075;-55
2023/06/30 01:07:08;;;;;;;;;;;;;;;22.83;50.58;101214.97;4131096;28;19933;-54
2023/06/30 01:09:13;;;;;;;;;;;;;;;22.84;50.35;101227.41;4116140;28;19926;-55
2023/06/30 01:11:15;;;;;;;;;;;;;;;22.83;50.55;101223.03;4130399;28;20280;-55
2023/06/30 01:13:17;;;;;;;;;;;;;;;22.80;50.51;101224.97;4130041;28;20425;-55
2023/06/30 01:15:19;;;;;;;;;;;;;;;22.81;50.40;101229.34;4121604;28;19968;-53
2023/06/30 01:17:24;;;;;;;;;;;;;;;22.80;50.18;101230.31;4130845;28;19980;-55
2023/06/30 01:19:30;;;;;;;;;;;;;;;22.81;50.34;101223.16;4122154;28;20172;-55
2023/06/30 01:21:32;;;;;;;;;;;;;;;22.80;50.12;101219.59;4129746;28;20020;-54
2023/06/30 01:23:35;;;;;;;;;;;;;;;22.80;50.05;101224.97;4129961;28;19926;-55
2023/06/30 01:25:36;;;;;;;;;;;;;;;22.79;50.12;101225.09;4121157;28;20016;-55
2023/06/30 01:27:39;;;;;;;;;;;;;;;22.79;50.13;101222.41;4130590;28;19926;-55
2023/06/30 01:29:42;;;;;;;;;;;;;;;22.78;50.25;101229.63;4122799;28;20364;-55
2023/06/30 01:31:45;;;;;;;;;;;;;;;22.78;50.08;101234.09;4128556;28;19933;-56
2023/06/30 01:33:46;;;;;;;;;;;;;;;22.76;50.23;101230.69;4130222;28;20336;-55
2023/06/30 01:35:48;;;;;;;;;;;;;;;22.76;49.99;101230.69;4120817;28;19957;-53
2023/06/30 01:37:49;;;;;;;;;;;;;;;22.75;50.44;101232.53;4130175;28;19937;-55
2023/06/30 01:39:51;;;;;;;;;;;;;;;22.76;49.99;101233.38;4124254;28;19926;-55
2023/06/30 01:41:53;;;;;;;;;;;;;;;22.74;50.09;101230.81;4126726;28;20442;-55
2023/06/30 01:43:55;;;;;;;;;;;;;;;22.74;50.00;101236.19;4130084;28;19937;-55
2023/06/30 01:45:56;;;;;;;;;;;;;;;22.73;50.20;101229.09;4120566;28;19942;-53
2023/06/30 01:47:58;;;;;;;;;;;;;;;22.73;50.08;101233.63;4130588;28;19974;-52
2023/06/30 01:50:05;;;;;;;;;;;;;;;22.72;50.30;101239.97;4127201;28;20367;-54
2023/06/30 01:52:07;;;;;;;;;;;;;;;22.71;49.96;101238.25;4121136;28;19980;-55
2023/06/30 01:54:09;;;;;;;;;;;;;;;22.71;49.93;101241.81;4115794;28;19968;-56
2023/06/30 01:56:10;;;;;;;;;;;;;;;22.71;50.22;101241.81;4126331;28;19938;-53
2023/06/30 01:58:12;;;;;;;;;;;;;;;22.70;50.06;101236.53;4114422;28;19926;-53
2023/06/30 02:00:18;;;;;;;;;;;;;;;22.69;50.28;101233.00;4120520;28;19933;-54
2023/06/30 02:02:20;;;;;;;;;;;;;;;22.69;50.12;101232.16;4121958;28;20004;-56
2023/06/30 02:04:22;;;;;;;;;;;;;;;22.68;49.86;101223.25;4115226;28;20410;-55
2023/06/30 02:06:23;;;;;;;;;;;;;;;22.68;50.02;101222.41;4118587;28;20013;-52
2023/06/30 02:08:30;;;;;;;;;;;;;;;22.68;49.95;101225.94;4130936;28;19933;-53
2023/06/30 02:10:32;;;;;;;;;;;;;;;22.67;50.06;101220.72;4126691;28;19932;-55
2023/06/30 02:12:34;;;;;;;;;;;;;;;22.66;50.07;101222.53;4123558;28;19961;-53
2023/06/30 02:14:35;;;;;;;;;;;;;;;22.65;50.02;101231.56;4131224;28;19957;-55
2023/06/30 02:16:37;;;;;;;;;;;;;;;22.64;50.01;101233.38;4118587;28;19926;-55
2023/06/30 02:18:39;;;;;;;;;;;;;;;22.65;49.82;101237.75;4130654;28;19933;-54
2023/06/30 02:20:45;;;;;;;;;;;;;;;22.65;50.13;101231.56;4127500;28;20385;-54
2023/06/30 02:22:53;;;;;;;;;;;;;;;22.64;49.90;101229.84;4122916;28;19972;-55
2023/06/30 02:24:56;;;;;;;;;;;;;;;22.63;50.17;101238.88;4131292;28;20459;-55
2023/06/30 02:26:57;;;;;;;;;;;;;;;22.62;50.09;101235.31;4121177;28;19926;-55
2023/06/30 02:28:59;;;;;;;;;;;;;;;22.62;49.97;101239.84;4134064;28;19972;-55
2023/06/30 02:31:00;;;;;;;;;;;;;;;22.62;49.93;101239.84;4131553;28;19926;-55
2023/06/30 02:33:07;;;;;;;;;;;;;;;22.62;49.91;101245.19;4125834;28;19965;-55
2023/06/30 02:35:14;;;;;;;;;;;;;;;22.62;49.84;101239.84;4134554;28;20033;-54
2023/06/30 02:37:15;;;;;;;;;;;;;;;22.61;49.96;101246.16;4121497;28;19976;-54
2023/06/30 02:39:17;;;;;;;;;;;;;;;22.61;49.95;101243.47;4133583;28;19926;-55
2023/06/30 02:41:18;;;;;;;;;;;;;;;22.61;50.23;101246.16;4130477;28;19926;-54
2023/06/30 02:43:20;;;;;;;;;;;;;;;22.60;50.16;101248.00;4124868;28;19944;-54
2023/06/30 02:45:22;;;;;;;;;;;;;;;22.60;49.71;101248.00;4134295;28;19952;-53
2023/06/30 02:47:23;;;;;;;;;;;;;;;22.59;49.79;101246.28;4123232;28;19932;-55
2023/06/30 02:49:25;;;;;;;;;;;;;;;22.59;49.79;101248.09;4132033;28;19937;-55
2023/06/30 02:51:26;;;;;;;;;;;;;;;22.59;49.78;101245.41;4130218;28;20423;-54
2023/06/30 02:53:33;;;;;;;;;;;;;;;22.58;50.19;101247.25;4123394;28;19932;-55
2023/06/30 02:55:36;;;;;;;;;;;;;;;22.57;49.77;101248.22;4134158;28;19926;-53
2023/06/30 02:57:39;;;;;;;;;;;;;;;22.56;49.69;101241.16;4123735;28;20524;-54
2023/06/30 02:59:41;;;;;;;;;;;;;;;22.57;49.79;101239.34;4129830;28;19988;-54
2023/06/30 03:01:43;;;;;;;;;;;;;;;22.56;50.08;101235.78;4132499;28;19926;-53
2023/06/30 03:03:44;;;;;;;;;;;;;;;22.56;49.63;101240.31;4122866;28;19988;-55
2023/06/30 03:05:46;;;;;;;;;;;;;;;22.56;49.96;101232.28;4133843;28;20036;-55
2023/06/30 03:07:48;;;;;;;;;;;;;;;22.56;50.06;101234.94;4140256;28;20340;-55
2023/06/30 03:09:49;;;;;;;;;;;;;;;22.55;49.72;101225.19;4122429;28;19926;-50
2023/06/30 03:11:51;;;;;;;;;;;;;;;22.55;50.06;101230.56;4118106;28;19981;-55
2023/06/30 03:13:52;;;;;;;;;;;;;;;22.53;49.90;101227.13;4128270;28;19925;-55
2023/06/30 03:15:54;;;;;;;;;;;;;;;22.52;49.78;101234.34;4117847;28;20016;-55
2023/06/30 03:17:55;;;;;;;;;;;;;;;22.53;49.94;101228.00;4122458;28;19984;-55
2023/06/30 03:19:57;;;;;;;;;;;;;;;22.52;49.70;101237.03;4123584;28;19926;-55
2023/06/30 03:21:59;;;;;;;;;;;;;;;22.51;50.03;101240.66;4117710;28;19933;-56
2023/06/30 03:24:00;;;;;;;;;;;;;;;22.51;50.01;101237.16;4129398;28;20008;-55
2023/06/30 03:26:02;;;;;;;;;;;;;;;22.50;49.58;101233.59;4117618;28;19977;-55
2023/06/30 03:28:04;;;;;;;;;;;;;;;22.50;49.87;101228.22;4120477;28;19934;-55
2023/06/30 03:30:06;;;;;;;;;;;;;;;22.51;49.78;101232.63;4125676;28;19938;-55
2023/06/30 03:32:12;;;;;;;;;;;;;;;22.49;49.83;101229.22;4117563;28;20048;-55
2023/06/30 03:34:13;;;;;;;;;;;;;;;22.48;49.54;101220.31;4128857;28;19937;-55
2023/06/30 03:36:15;;;;;;;;;;;;;;;22.48;49.61;101225.69;4117546;28;19926;-52
2023/06/30 03:38:17;;;;;;;;;;;;;;;22.46;49.64;101222.25;4119677;28;19926;-53
2023/06/30 03:40:18;;;;;;;;;;;;;;;22.48;49.58;101216.81;4127217;28;20013;-53
2023/06/30 03:42:20;;;;;;;;;;;;;;;22.46;49.60;101218.75;4117508;28;19981;-52
2023/06/30 03:44:21;;;;;;;;;;;;;;;22.46;49.75;101216.91;4127513;28;19925;-52
2023/06/30 03:46:23;;;;;;;;;;;;;;;22.45;49.56;101209.00;4118772;28;19949;-53
2023/06/30 03:48:24;;;;;;;;;;;;;;;22.43;49.58;101213.59;4119292;28;19926;-54
2023/06/30 03:50:26;;;;;;;;;;;;;;;22.44;49.82;101215.31;4122788;28;19936;-55
2023/06/30 03:52:27;;;;;;;;;;;;;;;22.43;49.56;101219.84;4133223;28;19933;-55
2023/06/30 03:54:34;;;;;;;;;;;;;;;22.42;49.70;101220.81;4123761;28;20013;-54
2023/06/30 03:56:35;;;;;;;;;;;;;;;22.43;49.36;101216.28;4130145;28;19926;-56
2023/06/30 03:58:37;;;;;;;;;;;;;;;22.42;49.59;101219.94;4130782;28;19926;-54
2023/06/30 04:00:38;;;;;;;;;;;;;;;22.41;49.53;101218.25;4122282;28;20504;-55
2023/06/30 04:02:41;;;;;;;;;;;;;;;22.41;49.54;101226.28;4132745;28;19937;-55
2023/06/30 04:04:42;;;;;;;;;;;;;;;22.40;49.52;101213.88;4125171;28;19930;-54
2023/06/30 04:06:44;;;;;;;;;;;;;;;22.40;49.49;101219.22;4128147;28;19930;-54
2023/06/30 04:08:46;;;;;;;;;;;;;;;22.40;49.45;101211.19;4131185;28;20016;-55
2023/06/30 04:10:48;;;;;;;;;;;;;;;22.39;49.78;101223.72;4122037;28;19941;-55
2023/06/30 04:12:50;;;;;;;;;;;;;;;22.39;49.43;101221.03;4133234;28;19929;-56
2023/06/30 04:14:51;;;;;;;;;;;;;;;22.39;49.55;101215.66;4126571;28;19989;-54
2023/06/30 04:16:53;;;;;;;;;;;;;;;22.38;49.50;101222.00;4125770;28;19925;-54
2023/06/30 04:18:55;;;;;;;;;;;;;;;22.38;49.46;101226.47;4131603;28;19972;-52
2023/06/30 04:20:57;;;;;;;;;;;;;;;22.37;49.38;101220.28;4121559;28;20344;-52
2023/06/30 04:22:59;;;;;;;;;;;;;;;22.37;49.19;101216.72;4132882;28;19926;-55
2023/06/30 04:25:01;;;;;;;;;;;;;;;22.37;49.43;101228.31;4128264;28;20025;-55
2023/06/30 04:27:03;;;;;;;;;;;;;;;22.36;49.54;101225.75;4124270;28;19926;-55
2023/06/30 04:29:04;;;;;;;;;;;;;;;22.37;49.30;101228.31;4147620;28;19932;-55
2023/06/30 04:31:06;;;;;;;;;;;;;;;22.37;49.44;101227.44;4120664;28;19977;-54
2023/06/30 04:33:07;;;;;;;;;;;;;;;22.35;49.31;101235.63;4131754;28;20382;-55
2023/06/30 04:35:09;;;;;;;;;;;;;;;22.34;49.44;101226.72;4129619;28;20423;-55
2023/06/30 04:37:10;;;;;;;;;;;;;;;22.35;49.38;101230.25;4122459;28;19926;-55
2023/06/30 04:39:12;;;;;;;;;;;;;;;22.35;49.63;101227.59;4147377;28;20021;-55
2023/06/30 04:41:14;;;;;;;;;;;;;;;22.36;49.47;101236.47;4122122;28;19934;-54
2023/06/30 04:43:16;;;;;;;;;;;;;;;22.33;49.45;101219.66;4130721;28;19930;-58
2023/06/30 04:45:17;;;;;;;;;;;;;;;22.33;49.37;101225.03;4130978;28;19926;-55
2023/06/30 04:47:19;;;;;;;;;;;;;;;22.33;49.23;101224.16;4125672;28;19930;-54
2023/06/30 04:49:21;;;;;;;;;;;;;;;22.33;49.22;101222.34;4125136;28;20022;-55
2023/06/30 04:51:23;;;;;;;;;;;;;;;22.33;49.31;101219.66;4128093;28;20037;-55
2023/06/30 04:53:25;;;;;;;;;;;;;;;22.23;49.50;101212.47;4119461;28;19926;-55
2023/06/30 04:55:27;;;;;;;;;;;;;;;22.32;49.24;101223.31;4117461;28;20036;-55
2023/06/30 04:57:29;;;;;;;;;;;;;;;22.32;49.56;101217.09;4126466;28;19930;-54
2023/06/30 04:59:30;;;;;;;;;;;;;;;22.31;49.34;101218.94;4116186;28;19965;-55
2023/06/30 05:01:32;;;;;;;;;;;;;;;22.32;49.09;101214.41;4122501;28;19926;-55
2023/06/30 05:03:34;;;;;;;;;;;;;;;22.32;49.32;101219.75;4121027;28;19926;-55
2023/06/30 05:05:41;;;;;;;;;;;;;;;22.31;49.50;101216.25;4117342;28;19938;-56
2023/06/30 05:07:42;;;;;;;;;;;;;;;22.30;49.33;101216.38;4125832;28;20024;-56
2023/06/30 05:09:46;;;;;;;;;;;;;;;22.30;49.28;101217.22;4114901;28;20016;-55
2023/06/30 05:11:47;;;;;;;;;;;;;;;22.30;49.34;101219.06;4122281;28;19926;-54
2023/06/30 05:13:49;;;;;;;;;;;;;;;22.30;49.13;101227.09;4121506;28;19926;-54
2023/06/30 05:15:51;;;;;;;;;;;;;;;22.29;49.57;101220.84;4116729;28;19981;-54
2023/06/30 05:17:52;;;;;;;;;;;;;;;22.29;49.14;101225.38;4125616;28;19926;-55
2023/06/30 05:19:54;;;;;;;;;;;;;;;22.29;49.40;101228.91;4115901;28;19926;-54
2023/06/30 05:21:55;;;;;;;;;;;;;;;22.29;49.52;101222.69;4120226;28;19926;-53
2023/06/30 05:23:57;;;;;;;;;;;;;;;22.29;49.33;101225.38;4123043;28;19937;-55
2023/06/30 05:25:58;;;;;;;;;;;;;;;22.29;49.26;101228.06;4115922;28;19932;-53
2023/06/30 05:28:00;;;;;;;;;;;;;;;22.28;49.09;101223.66;4126684;28;19926;-52
2023/06/30 05:30:02;;;;;;;;;;;;;;;22.28;49.17;101235.22;4115607;28;19937;-53
2023/06/30 05:32:04;;;;;;;;;;;;;;;22.27;49.43;101225.50;4118709;28;20025;-55
2023/06/30 05:34:05;;;;;;;;;;;;;;;22.29;48.96;101230.75;4124503;28;19932;-54
2023/06/30 05:36:07;;;;;;;;;;;;;;;22.27;49.15;101228.19;4115719;28;20399;-55
2023/06/30 05:38:08;;;;;;;;;;;;;;;22.27;49.33;101228.19;4124871;28;20409;-54
2023/06/30 05:40:15;;;;;;;;;;;;;;;22.27;49.03;101227.31;4116601;28;19934;-54
2023/06/30 05:42:16;;;;;;;;;;;;;;;22.28;49.11;101237.91;4117061;28;20040;-55
2023/06/30 05:44:18;;;;;;;;;;;;;;;22.27;48.97;101238.91;4125422;28;19991;-54
2023/06/30 05:46:19;;;;;;;;;;;;;;;22.27;48.86;101230.88;4115298;28;19926;-55
2023/06/30 05:48:26;;;;;;;;;;;;;;;22.27;49.24;101233.53;4124225;28;20339;-55
2023/06/30 05:50:28;;;;;;;;;;;;;;;22.27;48.96;101240.72;4130290;28;19934;-54
2023/06/30 05:52:30;;;;;;;;;;;;;;;22.26;48.91;101229.16;4130102;28;20016;-54
2023/06/30 05:54:36;;;;;;;;;;;;;;;22.27;49.16;101232.66;4121174;28;19976;-53
2023/06/30 05:56:38;;;;;;;;;;;;;;;22.26;48.78;101230.97;4131665;28;19933;-55
2023/06/30 05:58:40;;;;;;;;;;;;;;;22.26;49.03;101241.69;4121369;28;19926;-55
2023/06/30 06:00:42;;;;;;;;;;;;;;;22.25;48.84;101232.81;4127835;28;20350;-56
2023/06/30 06:02:43;;;;;;;;;;;;;;;22.24;48.98;101231.09;4129850;28;19933;-54
2023/06/30 06:04:45;;;;;;;;;;;;;;;22.25;48.81;101231.94;4120384;28;19929;-54
2023/06/30 06:06:47;;;;;;;;;;;;;;;22.25;48.73;101238.16;4131469;28;20027;-53
2023/06/30 06:08:48;;;;;;;;;;;;;;;22.26;48.99;101239.00;4122730;28;19965;-51
2023/06/30 06:10:50;;;;;;;;;;;;;;;22.25;48.87;101240.84;4126767;28;20057;-49
2023/06/30 06:12:52;;;;;;;;;;;;;;;22.24;48.91;101239.13;4129816;28;19954;-50
2023/06/30 06:14:54;;;;;;;;;;;;;;;22.25;48.74;101239.97;4120276;28;19926;-53
2023/06/30 06:16:56;;;;;;;;;;;;;;;22.24;48.79;101239.13;4131182;28;19926;-54
2023/06/30 06:18:57;;;;;;;;;;;;;;;22.25;48.83;101237.28;4124142;28;20026;-54
2023/06/30 06:21:01;;;;;;;;;;;;;;;22.25;48.67;101242.66;4124854;28;19929;-55
2023/06/30 06:23:02;;;;;;;;;;;;;;;22.24;48.87;101238.28;4130093;28;20017;-55
2023/06/30 06:25:04;;;;;;;;;;;;;;;22.25;48.78;101251.56;4119754;28;20059;-56
2023/06/30 06:27:06;;;;;;;;;;;;;;;22.25;48.74;101250.69;4131068;28;20013;-55
2023/06/30 06:29:07;;;;;;;;;;;;;;;22.24;48.98;101252.53;4125433;28;19936;-55
2023/06/30 06:31:09;;;;;;;;;;;;;;;22.24;48.86;101255.19;4123646;28;19925;-55
2023/06/30 06:33:11;;;;;;;;;;;;;;;22.24;48.88;101257.88;4131246;28;19926;-55
2023/06/30 06:35:13;;;;;;;;;;;;;;;22.25;48.73;101264.94;4119208;28;20277;-55
2023/06/30 06:37:15;;;;;;;;;;;;;;;22.24;48.75;101265.91;4130409;28;19969;-56
2023/06/30 06:39:18;;;;;;;;;;;;;;;22.24;48.97;101271.28;4142641;28;19929;-56
2023/06/30 06:41:20;;;;;;;;;;;;;;;22.25;48.99;101270.31;4124039;28;19978;-50
2023/06/30 06:43:26;;;;;;;;;;;;;;;22.25;48.72;101275.66;4114784;28;19981;-54
2023/06/30 06:45:27;;;;;;;;;;;;;;;22.26;48.70;101271.16;4125519;28;19929;-55
2023/06/30 06:47:48;;;;;;;;;;;;;;;22.26;48.76;101273.84;4114999;28;19926;-56
2023/06/30 06:49:49;;;;;;;;;;;;;;;22.26;48.67;101268.47;4123829;28;19925;-51
2023/06/30 06:51:51;;;;;;;;;;;;;;;22.26;48.80;101268.47;4122271;28;20495;-52
2023/06/30 06:53:53;;;;;;;;;;;;;;;22.27;48.75;101270.19;4115051;28;19932;-54
2023/06/30 06:55:56;;;;;;;;;;;;;;;22.27;48.82;101270.19;4126436;28;20012;-55
2023/06/30 06:57:57;;;;;;;;;;;;;;;22.28;48.97;101269.22;4113613;28;19926;-56
2023/06/30 06:59:59;;;;;;;;;;;;;;;22.29;48.89;101281.66;4117639;28;19926;-55
2023/06/30 07:02:04;;;;;;;;;;;;;;;22.29;48.82;101271.78;4123447;28;20399;-54
2023/06/30 07:04:06;;;;;;;;;;;;;;;22.09;49.18;101235.81;4114903;28;19932;-55
2023/06/30 07:06:08;;;;;;;;;;;;;;;22.32;49.36;101268.88;4125288;28;19930;-55
2023/06/30 07:08:10;;;;;;;;;;;;;;;22.33;49.22;101267.91;4115020;28;19926;-54
2023/06/30 07:10:12;;;;;;;;;;;;;;;22.36;49.21;101271.31;4116360;28;19989;-54
2023/06/30 07:12:13;;;;;;;;;;;;;;;22.37;49.19;101267.66;4125736;28;19926;-51
2023/06/30 07:14:15;;;;;;;;;;;;;;;22.40;49.20;101264.78;4118102;28;19926;-55
2023/06/30 07:16:17;;;;;;;;;;;;;;;22.40;49.10;101268.31;4126702;28;19934;-54
2023/06/30 07:18:20;;;;;;;;;;;;;;;22.42;48.90;101260.13;4119270;28;20299;-55
2023/06/30 07:20:23;;;;;;;;;;;;;;;22.42;48.76;101262.81;4118929;28;20412;-55
2023/06/30 07:22:24;;;;;;;;;;;;;;;22.42;48.87;101269.06;4128345;28;19977;-56
2023/06/30 07:24:26;;;;;;;;;;;;;;;22.44;48.68;101264.44;4117725;28;20281;-55
2023/06/30 07:26:42;;;;;;;;;;;;;;;22.45;48.67;101267.94;4126808;28;19930;-55
2023/06/30 07:28:47;;;;;;;;;;;;;;;22.45;48.83;101274.16;4118777;28;19930;-55
2023/06/30 07:30:48;;;;;;;;;;;;;;;22.46;48.53;101278.53;4118626;28;20328;-55
2023/06/30 07:32:50;;;;;;;;;;;;;;;22.48;48.51;101275.78;4122923;28;20346;-55
2023/06/30 07:34:52;;;;;;;;;;;;;;;22.48;48.47;101276.63;4133604;28;19926;-55
2023/06/30 07:36:53;;;;;;;;;;;;;;;22.48;48.44;101279.28;4124694;28;19926;-55
2023/06/30 07:38:55;;;;;;;;;;;;;;;22.49;48.44;101278.31;4128834;28;19932;-56
2023/06/30 07:40:56;;;;;;;;;;;;;;;22.49;48.42;101278.31;4131674;28;20012;-55
2023/06/30 07:42:59;;;;;;;;;;;;;;;22.52;48.37;101284.41;4122228;28;19926;-55
2023/06/30 07:45:01;;;;;;;;;;;;;;;22.54;48.51;101277.97;4133597;28;19933;-54
2023/06/30 07:47:02;;;;;;;;;;;;;;;22.54;48.25;101272.63;4125962;28;19926;-55
2023/06/30 07:49:04;;;;;;;;;;;;;;;22.56;48.21;101276.00;4127116;28;20025;-54
2023/06/30 07:51:05;;;;;;;;;;;;;;;22.57;48.45;101280.41;4132473;28;19968;-56
2023/06/30 07:53:10;;;;;;;;;;;;;;;22.57;48.40;101276.88;4127903;28;19933;-56
2023/06/30 07:55:18;;;;;;;;;;;;;;;22.56;48.13;101281.38;4115741;28;19969;-55
2023/06/30 07:57:19;;;;;;;;;;;;;;;22.58;48.35;101278.59;4123485;28;20287;-54
2023/06/30 07:59:21;;;;;;;;;;;;;;;22.58;48.29;101276.75;4121660;28;20339;-56
2023/06/30 08:01:22;;;;;;;;;;;;;;;22.57;48.16;101275.03;4118273;28;20012;-55
2023/06/30 08:03:24;;;;;;;;;;;;;;;22.55;47.98;101271.63;4128253;28;19929;-53
2023/06/30 08:05:26;;;;;;;;;;;;;;;22.56;48.00;101278.69;4116977;28;19926;-56
2023/06/30 08:07:27;;;;;;;;;;;;;;;22.56;48.05;101277.84;4121477;28;20357;-56
2023/06/30 08:09:49;;;;;;;;;;;;;;;22.56;48.06;101283.22;4120820;28;20288;-55
2023/06/30 08:11:50;;;;;;;;;;;;;;;22.56;48.25;101288.56;4118295;28;20014;-55
2023/06/30 08:13:52;;;;;;;;;;;;;;;22.56;48.25;101284.03;4127491;28;19932;-55
2023/06/30 08:15:53;;;;;;;;;;;;;;;22.58;48.30;101281.28;4117020;28;19958;-55
2023/06/30 08:17:56;;;;;;;;;;;;;;;22.57;48.20;101282.25;4121627;28;20233;-54
2023/06/30 08:19:59;;;;;;;;;;;;;;;22.56;48.03;101278.69;4137520;28;19926;-56
2023/06/30 08:22:02;;;;;;;;;;;;;;;22.58;47.82;101286.63;4131691;28;20316;-55
2023/06/30 08:24:04;;;;;;;;;;;;;;;22.58;47.95;101275.91;4120415;28;20399;-56
2023/06/30 08:26:05;;;;;;;;;;;;;;;22.58;47.79;101283.94;4132922;28;20029;-56
2023/06/30 08:28:07;;;;;;;;;;;;;;;22.58;47.77;101278.59;4127031;28;19929;-55
2023/06/30 08:30:09;;;;;;;;;;;;;;;22.59;47.78;101274.91;4125388;28;19937;-56
2023/06/30 08:32:11;;;;;;;;;;;;;;;22.58;47.66;101274.06;4132565;28;19930;-55
2023/06/30 08:34:12;;;;;;;;;;;;;;;22.59;47.71;101274.91;4120298;28;19927;-55
2023/06/30 08:36:14;;;;;;;;;;;;;;;22.59;47.86;101272.22;4116610;28;19942;-56
2023/06/30 08:38:16;;;;;;;;;;;;;;;22.58;47.71;101271.38;4117760;28;19926;-57
2023/06/30 08:40:24;;;;;;;;;;;;;;;22.60;47.96;101277.50;4125277;28;19933;-55
2023/06/30 08:42:27;;;;;;;;;;;;;;;22.60;47.93;101272.13;4116519;28;19926;-55
2023/06/30 08:44:31;;;;;;;;;;;;;;;22.64;48.46;101267.38;4127575;28;19992;-56
2023/06/30 08:46:33;;;;;;;;;;;;;;;22.67;48.30;101269.81;4116988;28;20361;-55
2023/06/30 08:48:35;;;;;;;;;;;;;;;22.67;47.88;101266.28;4121096;28;20296;-56
2023/06/30 08:50:37;;;;;;;;;;;;;;;22.67;48.18;101260.94;4124987;28;19926;-55
2023/06/30 08:52:39;;;;;;;;;;;;;;;22.65;47.79;101263.72;4115981;28;20416;-55
2023/06/30 08:54:40;;;;;;;;;;;;;;;22.65;47.77;101261.91;4125719;28;19925;-54
2023/06/30 08:56:44;;;;;;;;;;;;;;;22.66;48.00;101265.41;4117644;28;19932;-54
2023/06/30 08:58:46;;;;;;;;;;;;;;;22.67;47.97;101260.94;4116485;28;20355;-51
2023/06/30 09:00:48;;;;;;;;;;;;;;;22.67;47.83;101253.72;4126689;28;19926;-50
2023/06/30 09:02:50;;;;;;;;;;;;;;;22.68;47.70;101255.44;4115998;28;19930;-54
2023/06/30 09:04:51;;;;;;;;;;;;;;;22.70;47.37;101260.66;4124706;28;19926;-52
2023/06/30 09:06:53;;;;;;;;;;;;;;;22.72;47.64;101250.69;4125070;28;20052;-57
2023/06/30 09:09:07;;;;;;;;;;;;;;;22.76;47.40;101249.47;4128598;28;20173;-51
2023/06/30 09:11:09;;;;;;;;;;;;;;;22.78;47.53;101243.03;4122182;28;19930;-56
2023/06/30 09:13:12;;;;;;;;;;;;;;;22.83;47.31;101241.78;4126241;28;20346;-50
2023/06/30 09:15:16;;;;;;;;;;;;;;;22.80;47.28;101238.38;4125380;28;19927;-53
2023/06/30 09:17:18;;;;;;;;;;;;;;;22.80;47.29;101242.91;4121317;28;19966;-54
2023/06/30 09:19:19;;;;;;;;;;;;;;;22.80;47.17;101234.84;4122254;28;19937;-49
2023/06/30 09:21:21;;;;;;;;;;;;;;;22.80;47.00;101235.69;4119646;28;19926;-49
2023/06/30 09:23:28;;;;;;;;;;;;;;;22.81;47.18;101237.41;4123149;28;20286;-53
2023/06/30 09:25:33;;;;;;;;;;;;;;;22.80;46.97;101235.69;4122101;28;19965;-54
2023/06/30 09:27:35;;;;;;;;;;;;;;;22.82;47.04;101238.28;4125586;28;19932;-53
2023/06/30 09:29:36;;;;;;;;;;;;;;;22.83;47.07;101237.28;4124656;28;19927;-54
2023/06/30 09:31:38;;;;;;;;;;;;;;;22.84;46.86;101236.28;4122017;28;19968;-54
2023/06/30 09:33:40;;;;;;;;;;;;;;;22.86;46.85;101236.19;4120340;28;19962;-53
2023/06/30 09:35:43;;;;;;;;;;;;;;;22.85;46.98;101232.66;4121569;28;19938;-55
2023/06/30 09:37:45;;;;;;;;;;;;;;;22.86;47.03;101237.03;4122765;28;19934;-53
2023/06/30 09:39:50;;;;;;;;;;;;;;;22.93;47.00;101232.03;4123592;28;20025;-56
2023/06/30 09:41:52;;;;;;;;;;;;;;;23.02;46.97;101233.97;4118821;28;19937;-56
2023/06/30 09:43:57;;;;;;;;;;;;;;;23.11;46.77;101235.06;4124477;28;19934;-56
2023/06/30 09:46:00;;;;;;;;;;;;;;;23.07;46.07;101230.94;4123493;28;19957;-48
2023/06/30 09:48:02;;;;;;;;;;;;;;;23.05;46.68;101231.06;4122160;28;20391;-54
2023/06/30 09:50:05;;;;;;;;;;;;;;;23.04;46.24;101237.41;4123295;28;20377;-51
2023/06/30 09:52:07;;;;;;;;;;;;;;;23.04;46.53;101240.09;4123174;28;19952;-52
2023/06/30 09:54:09;;;;;;;;;;;;;;;23.02;46.32;101236.66;4123319;28;19933;-49
2023/06/30 09:56:18;;;;;;;;;;;;;;;23.04;46.38;101236.53;4124741;28;19926;-53
2023/06/30 09:58:20;;;;;;;;;;;;;;;23.05;46.38;101227.50;4120284;28;20301;-54
2023/06/30 10:00:23;;;;;;;;;;;;;;;23.06;46.20;101223.84;4121617;28;20413;-55
2023/06/30 10:02:37;;;;;;;;;;;;;;;23.04;45.94;101223.13;4122900;28;19967;-57
2023/06/30 10:04:39;;;;;;;;;;;;;;;23.11;45.40;101218.97;4118398;28;20040;-51
2023/06/30 10:06:41;;;;;;;;;;;;;;;23.06;43.34;101215.81;4121621;28;19930;-54
2023/06/30 10:08:43;;;;;;;;;;;;;;;23.07;42.51;101215.66;4123864;28;19942;-54
2023/06/30 10:10:44;;;;;;;;;;;;;;;23.10;41.46;101215.44;4120655;28;20307;-50
2023/06/30 10:12:49;;;;;;;;;;;;;;;23.11;40.44;101211.78;4119903;28;19930;-53
2023/06/30 10:14:51;;;;;;;;;;;;;;;23.06;39.71;101203.25;4122668;28;19934;-52
2023/06/30 10:16:55;;;;;;;;;;;;;;;23.08;40.20;101209.34;4124267;28;19937;-54
2023/06/30 10:18:58;;;;;;;;;;;;;;;23.11;40.31;101208.22;4121555;28;19932;-58
2023/06/30 10:20:59;;;;;;;;;;;;;;;23.16;40.38;101199.81;4122034;28;20423;-56
2023/06/30 10:23:01;;;;;;;;;;;;;;;23.18;40.96;101209.47;4122057;28;20181;-55
2023/06/30 10:25:05;;;;;;;;;;;;;;;23.23;39.81;101209.97;4120441;28;20000;-55
2023/06/30 10:27:08;;;;;;;;;;;;;;;23.30;39.54;101207.63;4122381;28;19927;-55
2023/06/30 10:29:09;;;;;;;;;;;;;;;23.32;38.79;101208.34;4118820;28;19953;-53